sensor_id;sensor_type;location;lat;lon;timestamp;temperature;humidity
8041;DHT22;4063;48.140;10.250;2023-07-13T06:13:00;17.80;99.90
8041;DHT22;4063;48.140;10.250;2023-07-13T06:15:25;17.60;99.90
8041;DHT22;4063;48.140;10.250;2023-07-13T06:25:10;18.10;99.90
8041;DHT22;4063;48.140;10.250;2023-07-13T06:30:01;18.50;99.90
8041;DHT22;4063;48.140;10.250;2023-07-13T06:32:27;18.50;99.90
8041;DHT22;4063;48.140;10.250;2023-07-13T06:34:52;18.50;99.90
8041;DHT22;4063;48.140;10.250;2023-07-13T06:37:18;18.60;99.90
8041;DHT22;4063;48.140;10.250;2023-07-13T06:39:44;18.70;99.90
8041;DHT22;4063;48.140;10.250;2023-07-13T06:42:10;18.80;99.90
8041;DHT22;4063;48.140;10.250;2023-07-13T06:44:36;18.90;99.90
8041;DHT22;4063;48.140;10.250;2023-07-13T06:47:01;18.90;99.90
8041;DHT22;4063;48.140;10.250;2023-07-13T06:49:27;18.90;99.90
8041;DHT22;4063;48.140;10.250;2023-07-13T06:51:52;18.80;99.90
8041;DHT22;4063;48.140;10.250;2023-07-13T06:54:18;18.70;99.90
8041;DHT22;4063;48.140;10.250;2023-07-13T06:56:43;18.80;99.90
8041;DHT22;4063;48.140;10.250;2023-07-13T06:59:09;19.00;99.90
8041;DHT22;4063;48.140;10.250;2023-07-13T07:01:34;19.10;99.90
8041;DHT22;4063;48.140;10.250;2023-07-13T07:04:00;19.30;99.90
8041;DHT22;4063;48.140;10.250;2023-07-13T07:06:25;19.40;99.90
8041;DHT22;4063;48.140;10.250;2023-07-13T07:08:52;19.40;99.90
8041;DHT22;4063;48.140;10.250;2023-07-13T07:11:21;19.30;99.90
8041;DHT22;4063;48.140;10.250;2023-07-13T07:13:48;19.10;99.90
8041;DHT22;4063;48.140;10.250;2023-07-13T07:16:14;19.00;99.90
8041;DHT22;4063;48.140;10.250;2023-07-13T07:18:39;19.20;99.90
8041;DHT22;4063;48.140;10.250;2023-07-13T07:21:05;19.20;99.90
8041;DHT22;4063;48.140;10.250;2023-07-13T07:23:31;19.40;99.90
8041;DHT22;4063;48.140;10.250;2023-07-13T07:25:56;19.40;99.90
8041;DHT22;4063;48.140;10.250;2023-07-13T07:28:22;19.40;99.90
8041;DHT22;4063;48.140;10.250;2023-07-13T07:30:48;19.30;99.90
8041;DHT22;4063;48.140;10.250;2023-07-13T07:33:14;19.40;99.90
8041;DHT22;4063;48.140;10.250;2023-07-13T07:35:42;19.30;99.90
8041;DHT22;4063;48.140;10.250;2023-07-13T07:38:08;19.30;99.90
8041;DHT22;4063;48.140;10.250;2023-07-13T07:40:40;19.40;99.90
8041;DHT22;4063;48.140;10.250;2023-07-13T07:43:09;19.40;99.90
8041;DHT22;4063;48.140;10.250;2023-07-13T07:45:35;19.40;99.90
8041;DHT22;4063;48.140;10.250;2023-07-13T07:48:00;19.50;99.90
8041;DHT22;4063;48.140;10.250;2023-07-13T07:50:27;19.70;99.90
8041;DHT22;4063;48.140;10.250;2023-07-13T07:52:53;19.90;99.90
8041;DHT22;4063;48.140;10.250;2023-07-13T07:55:21;20.20;99.90
8041;DHT22;4063;48.140;10.250;2023-07-13T07:57:47;20.30;99.90
8041;DHT22;4063;48.140;10.250;2023-07-13T08:00:13;20.10;99.90
8041;DHT22;4063;48.140;10.250;2023-07-13T08:02:38;20.30;99.90
8041;DHT22;4063;48.140;10.250;2023-07-13T08:05:07;20.30;99.90
8041;DHT22;4063;48.140;10.250;2023-07-13T08:07:32;20.50;99.90
8041;DHT22;4063;48.140;10.250;2023-07-13T08:09:58;20.50;99.90
8041;DHT22;4063;48.140;10.250;2023-07-13T08:12:23;20.40;99.90
8041;DHT22;4063;48.140;10.250;2023-07-13T08:14:52;20.50;99.90
8041;DHT22;4063;48.140;10.250;2023-07-13T08:17:20;20.70;99.90
8041;DHT22;4063;48.140;10.250;2023-07-13T08:19:45;20.80;99.90
8041;DHT22;4063;48.140;10.250;2023-07-13T08:22:11;20.90;99.90
8041;DHT22;4063;48.140;10.250;2023-07-13T08:24:37;21.00;99.90
8041;DHT22;4063;48.140;10.250;2023-07-13T15:13:40;27.30;73.50
8041;DHT22;4063;48.140;10.250;2023-07-13T15:16:33;27.10;77.70
8041;DHT22;4063;48.140;10.250;2023-07-13T15:18:59;26.90;78.00
8041;DHT22;4063;48.140;10.250;2023-07-13T15:21:25;26.50;74.50
8041;DHT22;4063;48.140;10.250;2023-07-13T15:23:53;26.10;78.10
8041;DHT22;4063;48.140;10.250;2023-07-13T15:26:19;25.90;81.00
8041;DHT22;4063;48.140;10.250;2023-07-13T15:28:46;25.70;82.40
8041;DHT22;4063;48.140;10.250;2023-07-13T15:31:24;26.00;82.60
8041;DHT22;4063;48.140;10.250;2023-07-13T15:53:48;27.90;79.20
8041;DHT22;4063;48.140;10.250;2023-07-13T15:56:22;27.40;78.90
8041;DHT22;4063;48.140;10.250;2023-07-13T15:58:50;27.10;77.30
8041;DHT22;4063;48.140;10.250;2023-07-13T16:01:16;27.40;75.50
8041;DHT22;4063;48.140;10.250;2023-07-13T16:03:43;28.80;71.30
8041;DHT22;4063;48.140;10.250;2023-07-13T16:06:28;28.90;69.60
8041;DHT22;4063;48.140;10.250;2023-07-13T16:08:54;28.10;74.20
8041;DHT22;4063;48.140;10.250;2023-07-13T16:11:23;27.30;74.00
8041;DHT22;4063;48.140;10.250;2023-07-13T16:13:50;26.90;77.50
8041;DHT22;4063;48.140;10.250;2023-07-13T16:16:22;26.60;79.00
8041;DHT22;4063;48.140;10.250;2023-07-13T16:18:54;26.60;78.80
8041;DHT22;4063;48.140;10.250;2023-07-13T16:21:26;26.70;82.60
8041;DHT22;4063;48.140;10.250;2023-07-13T16:48:43;29.00;75.80
8041;DHT22;4063;48.140;10.250;2023-07-13T16:51:09;28.20;76.50
8041;DHT22;4063;48.140;10.250;2023-07-13T16:53:34;27.20;78.10
8041;DHT22;4063;48.140;10.250;2023-07-13T16:56:01;26.50;80.60
8041;DHT22;4063;48.140;10.250;2023-07-13T16:58:31;26.00;84.00
8041;DHT22;4063;48.140;10.250;2023-07-13T17:00:58;25.70;84.70
8041;DHT22;4063;48.140;10.250;2023-07-13T17:06:18;25.10;87.70
8041;DHT22;4063;48.140;10.250;2023-07-13T17:08:44;25.00;90.10
8041;DHT22;4063;48.140;10.250;2023-07-13T17:11:10;24.90;92.40
8041;DHT22;4063;48.140;10.250;2023-07-13T17:13:36;24.90;93.80
8041;DHT22;4063;48.140;10.250;2023-07-13T17:16:01;24.70;91.00
8041;DHT22;4063;48.140;10.250;2023-07-13T17:18:29;24.30;91.90
8041;DHT22;4063;48.140;10.250;2023-07-13T17:21:03;23.90;92.80
8041;DHT22;4063;48.140;10.250;2023-07-13T17:23:29;23.70;94.70
8041;DHT22;4063;48.140;10.250;2023-07-13T17:25:55;23.50;95.70
8041;DHT22;4063;48.140;10.250;2023-07-13T17:28:22;23.40;95.30
8041;DHT22;4063;48.140;10.250;2023-07-13T17:30:55;23.30;96.00
8041;DHT22;4063;48.140;10.250;2023-07-13T17:33:35;23.30;96.40
8041;DHT22;4063;48.140;10.250;2023-07-13T17:36:04;23.60;96.10
8041;DHT22;4063;48.140;10.250;2023-07-13T17:38:37;24.80;96.80
8041;DHT22;4063;48.140;10.250;2023-07-13T17:41:05;25.10;96.30
8041;DHT22;4063;48.140;10.250;2023-07-13T17:43:36;25.10;96.30
8041;DHT22;4063;48.140;10.250;2023-07-13T17:46:08;25.00;96.10
8041;DHT22;4063;48.140;10.250;2023-07-13T17:48:35;25.10;96.90
8041;DHT22;4063;48.140;10.250;2023-07-13T17:51:02;26.10;93.20
8041;DHT22;4063;48.140;10.250;2023-07-13T17:53:28;26.00;94.70
8041;DHT22;4063;48.140;10.250;2023-07-13T17:55:53;25.70;94.90
8041;DHT22;4063;48.140;10.250;2023-07-13T17:58:19;25.90;94.90
8041;DHT22;4063;48.140;10.250;2023-07-13T18:00:47;26.60;91.90
8041;DHT22;4063;48.140;10.250;2023-07-13T18:03:41;27.20;92.60
8041;DHT22;4063;48.140;10.250;2023-07-13T18:06:16;27.50;91.50
8041;DHT22;4063;48.140;10.250;2023-07-13T18:08:53;27.80;90.40
8041;DHT22;4063;48.140;10.250;2023-07-13T18:11:19;27.70;90.70
8041;DHT22;4063;48.140;10.250;2023-07-13T18:13:48;27.60;90.40
8041;DHT22;4063;48.140;10.250;2023-07-13T18:16:22;27.50;90.90
8041;DHT22;4063;48.140;10.250;2023-07-13T18:18:58;27.10;91.40
8041;DHT22;4063;48.140;10.250;2023-07-13T18:21:25;26.90;91.90
8041;DHT22;4063;48.140;10.250;2023-07-13T18:23:52;26.50;92.30
8041;DHT22;4063;48.140;10.250;2023-07-13T18:26:20;26.20;93.10
8041;DHT22;4063;48.140;10.250;2023-07-13T18:28:46;25.90;93.20
8041;DHT22;4063;48.140;10.250;2023-07-13T18:31:19;25.50;94.00
8041;DHT22;4063;48.140;10.250;2023-07-13T18:33:47;24.90;95.20
8041;DHT22;4063;48.140;10.250;2023-07-13T18:36:14;24.30;97.20
8041;DHT22;4063;48.140;10.250;2023-07-13T18:38:41;23.80;97.60
8041;DHT22;4063;48.140;10.250;2023-07-13T18:41:13;23.40;99.10
8041;DHT22;4063;48.140;10.250;2023-07-13T18:43:40;23.00;99.90
8041;DHT22;4063;48.140;10.250;2023-07-13T18:46:29;22.70;99.90
8041;DHT22;4063;48.140;10.250;2023-07-13T18:49:01;22.40;99.90
8041;DHT22;4063;48.140;10.250;2023-07-13T18:51:27;22.00;99.90
8041;DHT22;4063;48.140;10.250;2023-07-13T18:53:53;21.80;99.90
8041;DHT22;4063;48.140;10.250;2023-07-13T18:58:54;21.30;99.90
8041;DHT22;4063;48.140;10.250;2023-07-13T19:01:38;21.00;99.90
8041;DHT22;4063;48.140;10.250;2023-07-13T19:04:27;20.80;99.90
8041;DHT22;4063;48.140;10.250;2023-07-13T19:06:54;20.60;99.90
8041;DHT22;4063;48.140;10.250;2023-07-13T19:09:20;20.50;99.90
8041;DHT22;4063;48.140;10.250;2023-07-13T19:11:45;20.30;99.90
8041;DHT22;4063;48.140;10.250;2023-07-13T19:14:13;20.10;99.90
8041;DHT22;4063;48.140;10.250;2023-07-13T19:16:41;20.00;99.90
8041;DHT22;4063;48.140;10.250;2023-07-13T19:19:18;19.80;99.90
8041;DHT22;4063;48.140;10.250;2023-07-13T19:21:47;19.80;99.90
8041;DHT22;4063;48.140;10.250;2023-07-13T19:24:17;19.70;99.90
8041;DHT22;4063;48.140;10.250;2023-07-13T19:26:45;19.70;99.90
8041;DHT22;4063;48.140;10.250;2023-07-13T19:29:16;19.70;99.90
8041;DHT22;4063;48.140;10.250;2023-07-13T19:31:42;19.60;99.90
8041;DHT22;4063;48.140;10.250;2023-07-13T19:36:37;19.60;99.90
8041;DHT22;4063;48.140;10.250;2023-07-13T19:39:25;19.50;99.90
8041;DHT22;4063;48.140;10.250;2023-07-13T19:41:56;19.50;99.90
8041;DHT22;4063;48.140;10.250;2023-07-13T19:44:24;19.40;99.90
8041;DHT22;4063;48.140;10.250;2023-07-13T19:46:51;19.40;99.90
8041;DHT22;4063;48.140;10.250;2023-07-13T19:49:17;19.40;99.90
8041;DHT22;4063;48.140;10.250;2023-07-13T19:51:43;19.40;99.90
8041;DHT22;4063;48.140;10.250;2023-07-13T19:54:10;19.40;99.90
8041;DHT22;4063;48.140;10.250;2023-07-13T19:56:36;19.30;99.90
8041;DHT22;4063;48.140;10.250;2023-07-13T19:59:28;19.30;99.90
8041;DHT22;4063;48.140;10.250;2023-07-13T20:01:54;19.30;99.90
8041;DHT22;4063;48.140;10.250;2023-07-13T20:04:21;19.30;99.90
8041;DHT22;4063;48.140;10.250;2023-07-13T20:06:48;19.20;99.90
8041;DHT22;4063;48.140;10.250;2023-07-13T20:09:21;19.30;99.90
8041;DHT22;4063;48.140;10.250;2023-07-13T20:11:48;19.30;99.90
8041;DHT22;4063;48.140;10.250;2023-07-13T20:14:18;19.20;99.90
8041;DHT22;4063;48.140;10.250;2023-07-13T20:16:44;19.20;99.90
8041;DHT22;4063;48.140;10.250;2023-07-13T20:19:13;19.20;99.90
8041;DHT22;4063;48.140;10.250;2023-07-13T20:21:39;19.20;99.90
8041;DHT22;4063;48.140;10.250;2023-07-13T20:24:16;19.30;99.90
8041;DHT22;4063;48.140;10.250;2023-07-13T20:26:46;19.40;99.90
8041;DHT22;4063;48.140;10.250;2023-07-13T20:29:15;19.30;99.90
8041;DHT22;4063;48.140;10.250;2023-07-13T20:31:42;19.30;99.90
8041;DHT22;4063;48.140;10.250;2023-07-13T20:34:16;19.30;99.90
8041;DHT22;4063;48.140;10.250;2023-07-13T20:36:42;19.30;99.90
8041;DHT22;4063;48.140;10.250;2023-07-13T20:39:10;19.30;99.90
8041;DHT22;4063;48.140;10.250;2023-07-13T20:41:36;19.20;99.90
8041;DHT22;4063;48.140;10.250;2023-07-13T20:44:04;19.20;99.90
8041;DHT22;4063;48.140;10.250;2023-07-13T20:46:30;19.20;99.90
8041;DHT22;4063;48.140;10.250;2023-07-13T20:48:55;19.20;99.90
8041;DHT22;4063;48.140;10.250;2023-07-13T20:51:21;19.20;99.90
8041;DHT22;4063;48.140;10.250;2023-07-13T20:53:49;19.10;99.90
8041;DHT22;4063;48.140;10.250;2023-07-13T20:56:19;19.10;99.90
8041;DHT22;4063;48.140;10.250;2023-07-13T20:58:49;19.10;99.90
8041;DHT22;4063;48.140;10.250;2023-07-13T21:01:18;19.10;99.90
8041;DHT22;4063;48.140;10.250;2023-07-13T21:03:45;19.10;99.90
8041;DHT22;4063;48.140;10.250;2023-07-13T21:06:15;19.10;99.90
8041;DHT22;4063;48.140;10.250;2023-07-13T21:08:41;19.10;99.90
8041;DHT22;4063;48.140;10.250;2023-07-13T21:11:07;19.10;99.90
8041;DHT22;4063;48.140;10.250;2023-07-13T21:13:33;18.90;99.90
8041;DHT22;4063;48.140;10.250;2023-07-13T21:15:58;18.70;99.90
8041;DHT22;4063;48.140;10.250;2023-07-13T21:18:25;18.50;99.90
8041;DHT22;4063;48.140;10.250;2023-07-13T21:20:53;18.40;99.90
8041;DHT22;4063;48.140;10.250;2023-07-13T21:23:28;18.30;99.90
8041;DHT22;4063;48.140;10.250;2023-07-13T21:25:54;18.30;99.90
8041;DHT22;4063;48.140;10.250;2023-07-13T21:28:22;18.30;99.90
8041;DHT22;4063;48.140;10.250;2023-07-13T21:30:49;18.30;99.90
8041;DHT22;4063;48.140;10.250;2023-07-13T21:33:15;18.30;99.90
8041;DHT22;4063;48.140;10.250;2023-07-13T21:35:43;18.30;99.90
8041;DHT22;4063;48.140;10.250;2023-07-13T21:38:26;18.20;99.90
8041;DHT22;4063;48.140;10.250;2023-07-13T21:40:59;18.20;99.90
8041;DHT22;4063;48.140;10.250;2023-07-13T21:43:25;18.10;99.90
8041;DHT22;4063;48.140;10.250;2023-07-13T21:45:51;18.20;99.90
8041;DHT22;4063;48.140;10.250;2023-07-13T21:48:17;18.20;99.90
8041;DHT22;4063;48.140;10.250;2023-07-13T21:50:45;18.10;99.90
8041;DHT22;4063;48.140;10.250;2023-07-13T21:53:28;18.00;99.90
8041;DHT22;4063;48.140;10.250;2023-07-13T21:56:00;18.00;99.90
8041;DHT22;4063;48.140;10.250;2023-07-13T21:58:31;18.00;99.90
8041;DHT22;4063;48.140;10.250;2023-07-13T22:00:58;17.90;99.90
8041;DHT22;4063;48.140;10.250;2023-07-13T22:03:29;17.70;99.90
8041;DHT22;4063;48.140;10.250;2023-07-13T22:05:56;17.60;99.90
8041;DHT22;4063;48.140;10.250;2023-07-13T22:08:30;17.50;99.90
8041;DHT22;4063;48.140;10.250;2023-07-13T22:10:58;17.50;99.90
8041;DHT22;4063;48.140;10.250;2023-07-13T22:13:26;17.50;99.90
8041;DHT22;4063;48.140;10.250;2023-07-13T22:15:55;17.50;99.90
8041;DHT22;4063;48.140;10.250;2023-07-13T22:18:21;17.60;99.90
8041;DHT22;4063;48.140;10.250;2023-07-13T22:20:49;17.50;99.90
8041;DHT22;4063;48.140;10.250;2023-07-13T22:23:23;17.50;99.90
8041;DHT22;4063;48.140;10.250;2023-07-13T22:25:52;17.50;99.90
8041;DHT22;4063;48.140;10.250;2023-07-13T22:28:20;17.40;99.90
8041;DHT22;4063;48.140;10.250;2023-07-13T22:30:49;17.30;99.90
8041;DHT22;4063;48.140;10.250;2023-07-13T22:33:24;17.20;99.90
8041;DHT22;4063;48.140;10.250;2023-07-13T22:35:51;17.10;99.90
8041;DHT22;4063;48.140;10.250;2023-07-13T22:38:20;17.10;99.90
8041;DHT22;4063;48.140;10.250;2023-07-13T22:40:46;17.00;99.90
8041;DHT22;4063;48.140;10.250;2023-07-13T22:43:23;16.90;99.90
8041;DHT22;4063;48.140;10.250;2023-07-13T22:45:58;16.90;99.90
8041;DHT22;4063;48.140;10.250;2023-07-13T22:48:26;16.70;99.90
8041;DHT22;4063;48.140;10.250;2023-07-13T22:50:53;16.70;99.90
8041;DHT22;4063;48.140;10.250;2023-07-13T22:53:32;16.60;99.90
8041;DHT22;4063;48.140;10.250;2023-07-13T22:55:58;16.50;99.90
8041;DHT22;4063;48.140;10.250;2023-07-13T22:58:24;16.50;99.90
8041;DHT22;4063;48.140;10.250;2023-07-13T23:00:55;16.40;99.90
8041;DHT22;4063;48.140;10.250;2023-07-13T23:03:23;16.30;99.90
8041;DHT22;4063;48.140;10.250;2023-07-13T23:05:49;16.30;99.90
8041;DHT22;4063;48.140;10.250;2023-07-13T23:08:16;16.20;99.90
8041;DHT22;4063;48.140;10.250;2023-07-13T23:10:42;16.10;99.90
8041;DHT22;4063;48.140;10.250;2023-07-13T23:13:19;16.10;99.90
8041;DHT22;4063;48.140;10.250;2023-07-13T23:15:45;16.00;99.90
8041;DHT22;4063;48.140;10.250;2023-07-13T23:18:17;15.90;99.90
8041;DHT22;4063;48.140;10.250;2023-07-13T23:20:43;15.90;99.90
8041;DHT22;4063;48.140;10.250;2023-07-13T23:23:14;15.80;99.90
8041;DHT22;4063;48.140;10.250;2023-07-13T23:25:41;15.70;99.90
8041;DHT22;4063;48.140;10.250;2023-07-13T23:28:07;15.60;99.90
8041;DHT22;4063;48.140;10.250;2023-07-13T23:30:33;15.60;99.90
8041;DHT22;4063;48.140;10.250;2023-07-13T23:33:23;15.50;99.90
8041;DHT22;4063;48.140;10.250;2023-07-13T23:35:50;15.40;99.90
8041;DHT22;4063;48.140;10.250;2023-07-13T23:38:20;15.30;99.90
8041;DHT22;4063;48.140;10.250;2023-07-13T23:40:46;16.10;99.90
8041;DHT22;4063;48.140;10.250;2023-07-13T23:43:12;15.20;99.90
8041;DHT22;4063;48.140;10.250;2023-07-13T23:45:37;15.10;99.90
8041;DHT22;4063;48.140;10.250;2023-07-13T23:48:04;15.00;99.90
8041;DHT22;4063;48.140;10.250;2023-07-13T23:50:32;15.00;99.90
8041;DHT22;4063;48.140;10.250;2023-07-13T23:52:58;14.90;99.90
8041;DHT22;4063;48.140;10.250;2023-07-13T23:55:29;14.90;99.90
8041;DHT22;4063;48.140;10.250;2023-07-13T23:58:01;14.80;99.90
